Hauptseite
METAR-TAF:

METAR-TAF

Flughäfen :

Bad Vöslau, Österreich

Flugplatz Vöslau-Kottingbrunn

Breite: 47-57-52N, Länge: 016-15-34E, Höhe: 233 m

Beobachtung

Neuester Wetterbericht von vor 11 Stunden und 21 Minuten, um 16:00 UTC
Wind 13 kt aus Süd
Temperatur 6°C
Luftfeuchtigkeit 52%
Luftdruck

METAR: LOAV 181600Z 18013KT 35KM BKN040SC 06/M03

Zeit: 04:21 (03:21 UTC)

Prognose

Neuester Wetterbericht von vor 15 Stunden und 56 Minuten, um 11:25 UTC
Gültige Prognose vom 18 um 12 UTC bis 18 um 21 UTC
Wind 10 kt aus Süd
Sichtweite 10 km oder mehr
Leicht bewölkt in der Höhe von 2500 ft
Durchbrochene Bewölkung in der Höhe von 4000 ft
Zeitweise
vom 18 um 12 UTC bis 18 um 18 UTC
Wind 16 kt aus Süd
Durchbrochene Bewölkung in der Höhe von 3000 ft
Leichtregen

TAF: LOAV 181125Z 1812/1821 18010KT 9999 FEW025 BKN040 TEMPO 1812/1818 18016KT -RA BKN030

Wetterbeobachtungen und Prognosen von mehr als 4000 Flughäfen (METAR und TAF Bericht).

Die verfügbaren Stationen werden durch gelbe und rote Markierungen auf der Karte dargestellt.

Führen Sie die Maus auf sie, um den Namen der Station zu sehen.

Darauf klicken, um die Beobachtung von Wetterbeobachtungen und Prognosen zu sehen.

Um die Karte zu ändern : klicken Sie auf den grünen Tasten mit einem schwarzen Kreuz Zum Vergrößern, auf den grünen Button mit einem Gedankenstrich zu verkleinern, oder auf die grünen Pfeile für benachbarte Karten.


METAR-TAF: